MST,Max TemperatureF,Mean TemperatureF,Min TemperatureF,Max Dew PointF,MeanDew PointF,Min DewpointF,Max Humidity, Mean Humidity, Min Humidity, Max Sea Level PressureIn, Mean Sea Level PressureIn, Min Sea Level PressureIn, Max VisibilityMiles, Mean VisibilityMiles, Min VisibilityMiles, Max Wind SpeedMPH, Mean Wind SpeedMPH, Max Gust SpeedMPH,PrecipitationIn, CloudCover, Events, WindDirDegrees
2012-11-1,62,48,35,39,34,28,81,59,34,30.16,30.03,29.96,10,10,10,8,3,,0.00,0,,11
2012-11-2,62,50,39,37,30,25,75,48,27,30.19,30.06,29.96,10,10,10,16,7,20,0.00,1,,31
2012-11-3,55,42,30,34,30,25,87,64,36,30.21,30.18,30.14,10,10,10,7,4,,0.00,0,,357
2012-11-4,62,47,32,34,30,27,87,55,26,30.36,30.22,30.17,10,10,10,14,3,20,0.00,2,,201
2012-11-5,62,48,35,36,33,28,81,57,34,30.35,30.21,30.11,10,10,10,12,4,,0.00,0,,182
2012-11-6,62,48,35,36,33,28,87,57,34,30.30,30.23,30.19,10,10,10,10,4,,0.00,0,,146
2012-11-7,69,50,32,36,30,21,81,51,21,30.19,30.04,29.95,10,10,10,10,3,,0.00,0,,58
2012-11-8,55,44,32,36,29,21,80,55,35,30.05,29.94,29.84,10,10,9,9,4,,0.00,0,,73
2012-11-9,57,44,30,36,31,25,93,69,41,29.83,29.68,29.54,10,10,10,8,5,,0.00,0,,18
2012-11-10,39,29,17,34,26,16,93,83,70,29.85,29.60,29.45,10,8,0,16,7,22,0.00,5,,44
2012-11-11,30,21,12,18,11,1,93,68,37,30.17,29.99,29.85,10,10,10,21,8,29,0.00,2,,152
2012-11-12,33,22,12,21,14,5,86,68,47,30.29,30.24,30.17,10,10,10,9,3,,0.03,0,,27
2012-11-13,46,36,26,28,23,18,80,61,37,30.30,30.23,30.19,10,10,10,12,3,,0.05,1,,161
2012-11-14,51,38,26,34,27,19,86,69,41,30.26,30.18,30.11,10,10,10,9,5,,0.00,0,,58
2012-11-15,44,36,28,32,29,27,93,75,57,30.43,30.35,30.21,10,10,6,14,5,17,0.00,5,,83
2012-11-16,48,34,21,34,29,19,93,79,58,30.30,30.17,30.07,10,8,4,7,3,,0.00,0,,15
2012-11-17,60,46,32,37,32,25,81,64,39,30.15,30.08,30.03,10,10,9,14,5,20,0.00,1,,47
2012-11-18,62,46,30,36,28,25,87,57,26,30.10,30.02,29.96,10,10,10,21,6,28,0.00,0,,257
2012-11-19,48,40,30,34,29,25,87,67,53,30.26,30.21,30.10,10,10,10,8,4,,0.00,0,,2
2012-11-20,62,44,26,32,27,18,93,59,29,30.25,30.17,30.09,10,10,10,9,3,,0.00,0,,69
2012-11-21,69,50,30,32,23,14,80,41,14,30.08,29.97,29.89,10,10,10,17,4,29,0.00,0,,229
2012-11-22,59,44,28,30,21,12,51,36,20,30.49,30.15,29.91,10,10,10,22,13,32,0.00,0,,177
2012-11-23,46,34,23,21,15,10,69,49,32,30.50,30.40,30.21,10,10,10,10,5,,0.00,0,,165
2012-11-24,53,40,28,30,22,14,86,52,24,30.20,30.03,29.96,10,10,10,12,2,,0.00,0,,137
2012-11-25,46,36,26,27,21,16,75,52,29,30.02,29.91,29.81,10,10,10,15,5,,0.00,0,,41
2012-11-26,33,27,21,27,23,16,93,78,64,30.36,30.23,30.02,10,10,9,12,7,,0.00,5,,136
2012-11-27,44,30,15,30,21,12,93,77,53,30.24,30.16,30.10,10,9,4,8,2,,0.00,0,,20
2012-11-28,39,32,24,28,20,12,80,62,44,30.24,30.15,30.05,10,10,10,9,3,,0.00,0,,24
2012-11-29,59,41,23,28,21,12,74,50,29,30.09,30.03,29.97,10,10,10,15,4,,0.00,0,,52
2012-11-30,57,44,32,28,25,21,80,53,31,30.09,29.98,29.85,10,10,10,9,3,,0.00,0,,26